Time;durP1;ratioP1;P1;durP2;ratioP2;P2;SDS_P1;SDS_P2;PMS_P1;PMS_P2;Temp;Humidity;BMP_temperature;BMP_pressure;BME280_temperature;BME280_humidity;BME280_pressure;Samples;Min_cycle;Max_cycle;Signal;HPM_P1;HPM_P2
2021/03/20 00:01:42;;;;;;;23.55;12.40;;;;;;;-2.49;84.26;98697.05;124586;1113;23232;-78
2021/03/20 00:04:10;;;;;;;20.97;12.20;;;;;;;-2.50;84.76;98697.20;124675;1112;23033;-78
2021/03/20 00:06:44;;;;;;;19.00;11.27;;;;;;;-2.49;84.53;98696.22;124659;1111;23078;-78
2021/03/20 00:09:14;;;;;;;19.27;11.03;;;;;;;-2.49;84.73;98704.22;124621;1112;23033;-78
2021/03/20 00:11:45;;;;;;;24.93;14.27;;;;;;;-2.47;84.14;98701.40;124681;1111;23080;-78
2021/03/20 00:14:13;;;;;;;;;;;;;;;-2.45;83.52;98696.74;124634;1111;23023;-78
2021/03/20 00:16:40;;;;;;;16.77;10.03;;;;;;;-2.46;84.12;98700.39;124727;1110;25825;-78
2021/03/20 00:19:07;;;;;;;15.10;8.83;;;;;;;-2.47;83.57;98709.39;124634;1111;24661;-78
2021/03/20 00:21:34;;;;;;;11.23;7.10;;;;;;;-2.51;83.24;98701.70;124596;1111;23080;-78
2021/03/20 00:24:00;;;;;;;12.73;7.80;;;;;;;-2.54;83.47;98711.84;124932;1111;26195;-78
2021/03/20 00:26:27;;;;;;;14.30;8.53;;;;;;;-2.57;83.83;98715.64;124582;1112;23024;-78
2021/03/20 00:28:54;;;;;;;16.07;9.30;;;;;;;-2.57;83.83;98706.81;124649;1112;23033;-78
2021/03/20 00:31:21;;;;;;;13.50;7.33;;;;;;;-2.59;83.37;98711.47;124674;1111;23081;-78
2021/03/20 00:33:48;;;;;;;9.90;5.50;;;;;;;-2.63;81.63;98715.44;124413;1112;23094;-78
2021/03/20 00:36:16;;;;;;;13.33;8.07;;;;;;;-2.65;82.59;98715.59;124630;1112;23021;-78
2021/03/20 00:38:43;;;;;;;10.37;5.97;;;;;;;-2.68;81.40;98716.72;124792;1111;23083;-78
2021/03/20 00:41:11;;;;;;;7.33;4.47;;;;;;;-2.70;82.08;98716.04;124621;1112;23033;-78
2021/03/20 00:43:38;;;;;;;10.07;6.23;;;;;;;-2.73;81.36;98713.67;124625;1112;23033;-78
2021/03/20 00:46:08;;;;;;;7.20;4.85;;;;;;;-2.72;81.63;98714.53;124715;1112;23263;-78
2021/03/20 00:48:38;;;;;;;6.57;4.50;;;;;;;-2.74;80.80;98713.86;124635;1112;23228;-78
2021/03/20 00:51:07;;;;;;;11.00;6.17;;;;;;;-2.77;81.38;98716.81;124602;1112;23029;-78
2021/03/20 00:53:34;;;;;;;8.10;6.30;;;;;;;-2.79;81.20;98708.14;124662;1111;27273;-78
2021/03/20 00:56:01;;;;;;;8.45;4.90;;;;;;;-2.81;81.96;98713.63;124651;1111;24041;-78
2021/03/20 00:58:37;;;;;;;5.80;4.33;;;;;;;-2.83;81.31;98712.95;124869;1112;23037;-78
2021/03/20 01:01:08;;;;;;;7.83;5.13;;;;;;;-2.88;80.40;98723.22;125031;1111;23028;-79
2021/03/20 01:03:39;;;;;;;8.03;5.93;;;;;;;-2.92;81.54;98720.03;124858;1113;23313;-79
2021/03/20 01:06:12;;;;;;;8.23;6.00;;;;;;;-2.94;81.86;98718.48;124903;1111;23228;-79
2021/03/20 01:08:39;;;;;;;9.53;4.77;;;;;;;-2.97;81.36;98722.31;124735;1112;23239;-79
2021/03/20 01:11:08;;;;;;;9.55;5.25;;;;;;;-3.00;81.46;98719.94;124820;1111;23226;-79
2021/03/20 01:13:35;;;;;;;10.30;5.30;;;;;;;-3.03;80.62;98720.23;124919;1110;23228;-79
2021/03/20 01:16:03;;;;;;;9.43;5.87;;;;;;;-3.07;81.50;98717.03;124977;1111;23068;-79
2021/03/20 01:18:29;;;;;;;8.70;6.30;;;;;;;-3.08;81.40;98717.19;124898;1111;26446;-79
2021/03/20 01:20:56;;;;;;;11.05;6.25;;;;;;;-3.10;80.68;98716.50;124911;1112;26047;-79
2021/03/20 01:23:23;;;;;;;5.57;3.93;;;;;;;-3.11;81.38;98705.02;125017;1112;23080;-79
2021/03/20 01:25:50;;;;;;;8.53;5.27;;;;;;;-3.12;81.12;98716.65;124953;1112;22993;-79
2021/03/20 01:28:20;;;;;;;6.20;3.60;;;;;;;-3.12;81.42;98718.48;124943;1112;26460;-79
2021/03/20 01:30:47;;;;;;;6.17;4.00;;;;;;;-3.12;81.86;98719.31;124922;1111;23454;-79
2021/03/20 01:33:14;;;;;;;9.20;5.30;;;;;;;-3.11;80.57;98717.52;125015;1112;23226;-79
2021/03/20 01:35:41;;;;;;;7.60;5.05;;;;;;;-3.11;81.30;98721.00;124971;1112;23910;-79
2021/03/20 01:38:08;;;;;;;7.13;5.90;;;;;;;-3.08;80.46;98719.84;125109;1111;23089;-79
2021/03/20 01:40:53;;;;;;;5.57;4.23;;;;;;;-3.08;81.21;98720.70;124720;1111;23086;-79
2021/03/20 01:43:23;;;;;;;7.83;4.93;;;;;;;-3.09;80.78;98719.02;124833;1112;23449;-79
2021/03/20 01:45:50;;;;;;;8.17;5.50;;;;;;;-3.08;80.33;98727.84;125032;1112;26781;-79
2021/03/20 01:48:22;;;;;;;4.80;3.95;;;;;;;-3.10;80.02;98728.02;124940;1112;27419;-79
2021/03/20 01:50:59;;;;;;;8.93;5.57;;;;;;;-3.11;79.47;98730.83;125118;1111;23203;-79
2021/03/20 01:53:44;;;;;;;6.83;4.83;;;;;;;-3.10;79.68;98737.81;124963;1111;23024;-79
2021/03/20 01:56:16;;;;;;;8.37;5.50;;;;;;;-3.12;78.94;98742.45;125019;1112;23079;-79
2021/03/20 01:58:45;;;;;;;9.07;6.10;;;;;;;-3.11;79.90;98736.16;124878;1111;23094;-79
2021/03/20 02:01:20;;;;;;;8.35;5.60;;;;;;;-3.10;79.70;98737.81;124953;1111;23225;-79
2021/03/20 02:03:47;;;;;;;7.57;5.10;;;;;;;-3.11;79.35;98739.65;125018;1112;26212;-79
2021/03/20 02:06:15;;;;;;;10.95;5.40;;;;;;;-3.12;80.51;98731.80;124974;1112;26226;-79
2021/03/20 02:08:44;;;;;;;8.73;5.40;;;;;;;-3.13;79.87;98740.80;124756;1112;26166;-79
2021/03/20 02:11:31;;;;;;;9.28;6.00;;;;;;;-3.14;79.95;98739.11;125041;1111;24842;-79
2021/03/20 02:14:08;;;;;;;6.37;3.60;;;;;;;-3.15;81.04;98746.27;124768;1112;23030;-79
2021/03/20 02:17:06;;;;;;;9.13;6.73;;;;;;;-3.16;79.66;98749.08;124900;1111;23236;-79
2021/03/20 02:19:35;;;;;;;6.43;5.47;;;;;;;-3.20;80.71;98745.89;124998;1112;26434;-79
2021/03/20 02:22:07;;;;;;;9.13;5.43;;;;;;;-3.23;80.63;98748.84;125081;1111;23003;-79
2021/03/20 02:25:11;;;;;;;8.03;5.17;;;;;;;-3.26;80.32;98755.31;124783;1112;23503;-79
2021/03/20 02:27:57;;;;;;;8.33;5.83;;;;;;;-3.27;80.33;98744.81;124908;1112;26411;-79
2021/03/20 02:30:45;;;;;;;9.07;5.40;;;;;;;-3.30;81.78;98748.59;124841;1112;23027;-79
2021/03/20 02:33:37;;;;;;;10.20;5.30;;;;;;;-3.33;79.97;98743.59;124899;1112;23603;-79
2021/03/20 02:36:29;;;;;;;10.63;5.53;;;;;;;-3.35;80.86;98737.55;124843;1112;26434;-80
2021/03/20 02:39:28;;;;;;;9.70;5.57;;;;;;;-3.38;80.37;98745.00;124924;1112;23025;-80
2021/03/20 02:42:18;;;;;;;5.22;3.37;;;;;;;-3.42;80.21;98757.77;124826;1112;23039;-79
2021/03/20 02:45:03;;;;;;;6.23;3.47;;;;;;;-3.47;80.38;98752.05;124991;1112;23000;-80
2021/03/20 02:47:38;;;;;;;6.30;4.30;;;;;;;-3.48;80.70;98750.39;124696;1112;23020;-80
2021/03/20 02:50:15;;;;;;;17.20;5.57;;;;;;;-3.51;79.80;98764.81;124821;1113;23023;-79
2021/03/20 02:52:59;;;;;;;10.57;5.50;;;;;;;-3.53;79.23;98765.97;124895;1111;23087;-80
2021/03/20 02:55:32;;;;;;;7.13;4.43;;;;;;;-3.56;79.49;98775.09;124998;1112;23094;-80
2021/03/20 02:58:18;;;;;;;19.37;3.60;;;;;;;-3.60;79.58;98783.51;125030;1112;23023;-80
2021/03/20 03:00:51;;;;;;;12.33;7.73;;;;;;;-3.61;79.67;98777.36;124921;1113;23251;-79
2021/03/20 03:03:21;;;;;;;9.03;4.90;;;;;;;-3.63;79.75;98774.84;125116;1112;23208;-80
2021/03/20 03:05:58;;;;;;;9.50;5.80;;;;;;;-3.63;79.50;98779.30;124830;1112;23024;-80
2021/03/20 03:08:29;;;;;;;4.90;3.27;;;;;;;-3.64;79.85;98777.64;124868;1112;23192;-80
2021/03/20 03:11:05;;;;;;;9.40;5.07;;;;;;;-3.69;79.38;98778.07;124965;1112;27868;-80
2021/03/20 03:13:37;;;;;;;5.15;3.25;;;;;;;-3.72;79.04;98780.19;124999;1112;23235;-80
2021/03/20 03:16:12;;;;;;;4.83;2.60;;;;;;;-3.78;78.61;98780.78;124858;1112;23070;-80
2021/03/20 03:18:47;;;;;;;6.10;2.73;;;;;;;-3.82;79.00;98793.54;124965;1112;23151;-80
2021/03/20 03:21:18;;;;;;;7.00;4.07;;;;;;;-3.83;78.22;98800.66;124697;1113;23228;-80
2021/03/20 03:23:44;;;;;;;7.13;2.97;;;;;;;-3.86;78.29;98795.66;124543;1112;23014;-80
2021/03/20 03:26:29;;;;;;;6.93;3.17;;;;;;;-3.87;78.17;98793.13;124663;1112;23034;-80
2021/03/20 03:29:10;;;;;;;6.37;3.10;;;;;;;-3.91;78.32;98797.91;124619;1112;23202;-80
2021/03/20 03:31:52;;;;;;;6.57;2.73;;;;;;;-3.91;79.93;98803.22;124615;1111;23024;-80
2021/03/20 03:34:34;;;;;;;6.13;3.17;;;;;;;-3.91;80.26;98808.55;124688;1111;23080;-80
2021/03/20 03:37:38;;;;;;;5.30;2.90;;;;;;;-3.92;79.54;98814.00;125020;1111;23956;-80
2021/03/20 03:40:13;;;;;;;5.17;2.93;;;;;;;-3.95;79.37;98814.28;125053;1111;23103;-80
2021/03/20 03:42:40;;;;;;;5.40;3.27;;;;;;;-3.95;79.26;98820.44;124927;1111;23021;-80
2021/03/20 03:45:12;;;;;;;6.67;3.23;;;;;;;-3.96;78.87;98810.80;124958;1112;23077;-80
2021/03/20 03:47:38;;;;;;;4.97;3.20;;;;;;;-3.95;79.33;98823.09;124757;1112;26427;-80
2021/03/20 03:50:12;;;;;;;5.90;3.10;;;;;;;-3.96;79.74;98832.08;125054;1111;22984;-80
2021/03/20 03:52:38;;;;;;;4.27;2.33;;;;;;;-3.95;79.07;98832.91;124744;1112;23023;-80
2021/03/20 03:55:08;;;;;;;5.95;3.20;;;;;;;-3.95;79.10;98830.25;124993;1111;23023;-80
2021/03/20 03:58:06;;;;;;;5.60;2.97;;;;;;;-3.96;78.95;98833.91;124788;1112;23021;-80
2021/03/20 04:00:38;;;;;;;4.43;2.70;;;;;;;-3.96;78.29;98845.38;124940;1111;26618;-80
2021/03/20 04:03:36;;;;;;;6.33;2.83;;;;;;;-3.96;79.11;98844.55;124789;1111;23000;-80
2021/03/20 04:06:38;;;;;;;6.00;2.57;;;;;;;-4.00;77.79;98854.63;125029;1111;23078;-80
2021/03/20 04:09:29;;;;;;;5.57;2.83;;;;;;;-4.02;77.21;98872.53;124834;1112;26562;-80
2021/03/20 04:12:05;;;;;;;5.00;2.77;;;;;;;-4.03;78.08;98862.89;124965;1111;23030;-80
2021/03/20 04:14:35;;;;;;;7.47;3.90;;;;;;;-4.03;77.20;98863.72;124795;1112;26070;-80
2021/03/20 04:17:25;;;;;;;7.83;3.67;;;;;;;-4.00;77.56;98883.89;125057;1111;22997;-80
2021/03/20 04:20:14;;;;;;;8.17;3.10;;;;;;;-3.97;78.07;98875.61;124737;1112;23055;-80
2021/03/20 04:22:58;;;;;;;6.10;2.70;;;;;;;-3.96;76.77;98879.13;124932;1111;23076;-80
2021/03/20 04:25:50;;;;;;;6.75;2.40;;;;;;;-3.99;76.33;98874.91;124789;1112;23223;-80
2021/03/20 04:28:23;;;;;;;6.57;2.80;;;;;;;-4.04;77.01;98882.48;124946;1112;23076;-79
2021/03/20 04:30:57;;;;;;;6.43;2.87;;;;;;;-4.09;76.46;98882.92;124857;1111;23041;-80
2021/03/20 04:33:29;;;;;;;7.57;2.57;;;;;;;-4.08;76.52;98884.58;124857;1112;23025;-80
2021/03/20 04:36:03;;;;;;;7.70;2.60;;;;;;;-4.10;76.95;98889.20;124799;1112;23028;-80
2021/03/20 04:38:30;;;;;;;6.77;2.77;;;;;;;-4.07;77.61;98896.91;124670;1112;23083;-80
2021/03/20 04:41:08;;;;;;;7.93;2.97;;;;;;;-4.06;76.67;98895.08;124977;1110;23231;-80
2021/03/20 04:43:37;;;;;;;5.83;3.30;;;;;;;-4.05;76.96;98902.09;125015;1112;23179;-80
2021/03/20 04:46:07;;;;;;;;;;;;;;;-4.05;76.59;98900.27;125127;1112;23228;-80
2021/03/20 04:48:40;;;;;;;5.37;2.72;;;;;;;-4.04;76.94;98903.75;124896;1112;21529;-79
2021/03/20 04:51:26;;;;;;;9.93;3.87;;;;;;;-4.08;75.27;98899.70;124921;1112;23091;-79
2021/03/20 04:54:02;;;;;;;6.47;2.67;;;;;;;-4.10;75.83;98909.65;124939;1111;22993;-79
2021/03/20 04:56:36;;;;;;;6.17;3.17;;;;;;;-4.09;74.80;98924.61;124791;1112;23202;-80
2021/03/20 04:59:10;;;;;;;4.27;2.00;;;;;;;-4.19;73.08;98927.28;124806;1112;23223;-80
2021/03/20 05:01:52;;;;;;;6.97;2.63;;;;;;;-4.25;73.46;98933.14;124966;1112;23145;-80
2021/03/20 05:04:24;;;;;;;7.20;3.10;;;;;;;-4.32;72.09;98932.02;124772;1112;23142;-80
2021/03/20 05:06:53;;;;;;;9.20;3.43;;;;;;;-4.40;71.94;98932.72;124917;1110;23116;-80
2021/03/20 05:09:26;;;;;;;10.50;3.30;;;;;;;-4.43;72.21;98940.95;124829;1112;23083;-80
2021/03/20 05:12:01;;;;;;;8.47;3.57;;;;;;;-4.49;71.61;98946.84;124950;1112;23033;-80
2021/03/20 05:14:37;;;;;;;11.20;3.85;;;;;;;-4.55;70.48;98958.00;124769;1112;22987;-80
2021/03/20 05:17:10;;;;;;;8.23;3.93;;;;;;;-4.64;70.79;98957.86;124919;1112;23094;-80
2021/03/20 05:19:37;;;;;;;9.80;4.17;;;;;;;-4.71;70.11;98959.38;124726;1111;23023;-80
2021/03/20 05:22:05;;;;;;;8.47;4.10;;;;;;;-4.73;70.74;98965.78;125067;1111;23062;-80
2021/03/20 05:24:39;;;;;;;7.90;3.53;;;;;;;-4.77;70.37;98967.88;124699;1112;23135;-80
2021/03/20 05:27:09;;;;;;;9.20;3.80;;;;;;;-4.80;70.08;98976.10;124567;1113;23078;-80
2021/03/20 05:29:35;;;;;;;10.70;4.00;;;;;;;-4.84;70.18;98974.70;124440;1113;23024;-80
2021/03/20 05:32:04;;;;;;;12.35;4.80;;;;;;;-4.86;70.17;98976.66;124866;1112;23033;-80
2021/03/20 05:34:40;;;;;;;8.40;3.20;;;;;;;-4.88;69.84;98976.78;125019;1111;26405;-80
2021/03/20 05:37:16;;;;;;;15.73;4.30;;;;;;;-4.89;70.61;98972.44;124891;1111;26431;-80
2021/03/20 05:39:43;;;;;;;7.07;3.10;;;;;;;-4.88;70.42;98978.61;124891;1111;23130;-80
2021/03/20 05:42:39;;;;;;;8.30;3.43;;;;;;;-4.89;70.65;98979.57;125052;1112;23084;-80
2021/03/20 05:45:24;;;;;;;8.47;3.00;;;;;;;-4.91;70.75;98984.18;124811;1111;23022;-80
2021/03/20 05:48:00;;;;;;;10.80;3.30;;;;;;;-4.98;70.64;98986.52;125119;1112;26396;-80
2021/03/20 05:50:56;;;;;;;15.30;4.33;;;;;;;-4.94;70.38;98992.41;124703;1112;23820;-80
2021/03/20 05:53:44;;;;;;;8.27;3.70;;;;;;;-4.92;71.38;98990.45;124923;1112;26203;-80
2021/03/20 05:56:20;;;;;;;7.45;4.12;;;;;;;-4.92;70.52;98998.42;124881;1111;23028;-80
2021/03/20 05:59:09;;;;;;;12.73;3.70;;;;;;;-4.93;70.10;98994.94;124922;1112;23034;-80
2021/03/20 06:02:13;;;;;;;9.43;2.80;;;;;;;-4.94;70.63;98995.06;124999;1111;26434;-80
2021/03/20 06:04:45;;;;;;;10.03;3.50;;;;;;;-4.99;69.92;99004.28;124750;1112;23067;-80
2021/03/20 06:07:49;;;;;;;10.75;4.45;;;;;;;-5.04;70.08;99006.48;124868;1111;26047;-80
2021/03/20 06:10:38;;;;;;;8.70;3.07;;;;;;;-5.08;70.35;99007.73;124870;1111;23080;-80
2021/03/20 06:13:17;;;;;;;10.90;4.47;;;;;;;-5.13;70.36;99015.25;125157;1112;23232;-80
2021/03/20 06:16:01;;;;;;;;;;;;;;;-5.14;70.31;99010.90;124742;1112;26402;-80
2021/03/20 06:19:06;;;;;;;10.70;3.67;;;;;;;-5.18;70.24;99014.80;124791;1112;21524;-80
2021/03/20 06:21:48;;;;;;;10.00;3.97;;;;;;;-5.20;70.38;99027.37;124783;1112;23023;-80
2021/03/20 06:24:48;;;;;;;13.10;4.20;;;;;;;-5.20;70.74;99030.86;124894;1110;23103;-80
2021/03/20 06:27:19;;;;;;;12.50;4.70;;;;;;;-5.17;70.63;99035.91;124937;1112;26180;-80
2021/03/20 06:30:01;;;;;;;13.60;4.83;;;;;;;-5.15;70.37;99036.62;124883;1111;26405;-80
2021/03/20 06:32:35;;;;;;;12.03;4.73;;;;;;;-5.15;71.07;99033.13;124952;1112;23006;-80
2021/03/20 06:35:48;;;;;;;14.80;5.73;;;;;;;-5.10;70.78;99033.55;124752;1112;23087;-80
2021/03/20 06:38:42;;;;;;;9.60;4.17;;;;;;;-5.01;70.81;99040.76;124987;1111;23026;-80
2021/03/20 06:41:45;;;;;;;10.15;4.55;;;;;;;-4.96;70.71;99040.34;124790;1112;23784;-80
2021/03/20 06:44:45;;;;;;;10.60;4.90;;;;;;;-4.87;70.90;99047.55;124821;1112;23226;-80
2021/03/20 06:47:18;;;;;;;12.27;4.93;;;;;;;-4.73;71.18;99050.81;124843;1112;27788;-80
2021/03/20 06:50:08;;;;;;;9.67;4.60;;;;;;;-4.61;71.04;99045.26;125021;1112;24383;-80
2021/03/20 06:52:38;;;;;;;11.10;4.67;;;;;;;-4.46;71.22;99051.07;124960;1112;23100;-80
2021/03/20 06:55:42;;;;;;;7.85;3.17;;;;;;;-4.36;70.57;99042.28;124878;1111;27357;-80
2021/03/20 06:58:36;;;;;;;8.87;4.40;;;;;;;-4.34;69.94;99053.61;124736;1112;24657;-80
2021/03/20 07:01:22;;;;;;;12.00;4.23;;;;;;;-4.32;70.06;99051.66;124826;1112;23202;-80
2021/03/20 07:04:09;;;;;;;7.80;3.90;;;;;;;-4.32;69.64;99057.84;124954;1111;26514;-80
2021/03/20 07:06:49;;;;;;;10.47;4.10;;;;;;;-4.31;69.29;99062.16;124797;1112;23014;-80
2021/03/20 07:09:16;;;;;;;10.83;3.93;;;;;;;-4.31;69.92;99058.67;124971;1112;23083;-80
2021/03/20 07:12:03;;;;;;;9.30;3.90;;;;;;;-4.34;68.89;99067.73;124836;1112;26533;-80
2021/03/20 07:14:42;;;;;;;8.17;3.57;;;;;;;-4.33;69.62;99056.14;124757;1111;23086;-80
2021/03/20 07:17:22;;;;;;;9.40;3.67;;;;;;;-4.29;68.95;99064.69;124906;1112;23022;-80
2021/03/20 07:19:56;;;;;;;;;;;;;;;-4.16;70.56;99072.41;124948;1112;23202;-80
2021/03/20 07:22:43;;;;;;;8.43;3.40;;;;;;;-4.08;69.01;99062.78;124973;1112;21675;-80
2021/03/20 07:25:38;;;;;;;6.83;2.93;;;;;;;-4.02;68.02;99066.70;124967;1112;24623;-80
2021/03/20 07:28:17;;;;;;;6.50;3.10;;;;;;;-3.94;69.33;99074.85;124872;1112;23032;-80
2021/03/20 07:31:05;;;;;;;6.45;2.33;;;;;;;-3.91;68.23;99079.91;125002;1111;23017;-80
2021/03/20 07:33:40;;;;;;;12.10;5.30;;;;;;;-3.83;68.88;99074.72;124851;1111;26523;-80
2021/03/20 07:36:33;;;;;;;5.87;4.17;;;;;;;-3.73;67.65;99084.56;125025;1112;23023;-80
2021/03/20 07:39:15;;;;;;;12.33;4.23;;;;;;;-3.66;68.12;99086.52;124781;1112;27426;-80
2021/03/20 07:42:00;;;;;;;6.40;3.50;;;;;;;-3.58;66.63;99082.31;124954;1112;23106;-80
2021/03/20 07:44:30;;;;;;;14.37;4.17;;;;;;;-3.46;67.98;99090.02;124962;1112;25774;-80
2021/03/20 07:46:57;;;;;;;13.93;4.17;;;;;;;-3.34;66.98;99096.06;124966;1111;23089;-80
2021/03/20 07:49:31;;;;;;;9.55;4.10;;;;;;;-3.25;66.69;99089.05;125112;1111;23057;-80
2021/03/20 07:52:04;;;;;;;11.20;4.73;;;;;;;-3.18;66.92;99097.33;125000;1112;23344;-80
2021/03/20 07:54:31;;;;;;;9.55;3.70;;;;;;;-3.14;65.96;99101.37;125004;1112;27200;-80
2021/03/20 07:57:31;;;;;;;9.83;4.30;;;;;;;-3.13;65.60;99103.91;124631;1112;23031;-80
2021/03/20 07:59:58;;;;;;;9.43;3.10;;;;;;;-3.05;66.98;99100.52;124254;1112;23116;-80
2021/03/20 08:02:34;;;;;;;10.27;3.47;;;;;;;-3.03;66.35;99095.88;124638;1113;23024;-80
2021/03/20 08:05:05;;;;;;;10.70;4.67;;;;;;;-2.95;66.89;99101.36;124561;1112;23030;-80
2021/03/20 08:07:47;;;;;;;13.57;3.90;;;;;;;-2.87;65.55;99105.95;124725;1112;23232;-80
2021/03/20 08:10:20;;;;;;;7.00;2.97;;;;;;;-2.86;65.03;99107.66;124630;1112;23229;-80
2021/03/20 08:12:58;;;;;;;8.55;3.80;;;;;;;-2.84;64.49;99110.18;124657;1111;24017;-80
2021/03/20 08:15:37;;;;;;;6.03;2.90;;;;;;;-2.82;63.62;99109.04;124553;1112;26465;-80
2021/03/20 08:18:22;;;;;;;12.25;4.58;;;;;;;-2.74;64.79;99106.51;124674;1112;24655;-79
2021/03/20 08:21:07;;;;;;;6.03;2.80;;;;;;;-2.70;65.33;99118.55;124645;1111;23099;-80
2021/03/20 08:23:56;;;;;;;7.33;3.40;;;;;;;-2.63;62.99;99116.16;124646;1111;24752;-79
2021/03/20 08:26:48;;;;;;;8.30;3.60;;;;;;;-2.61;63.08;99108.02;124630;1112;23077;-80
2021/03/20 08:29:25;;;;;;;8.93;3.30;;;;;;;-2.56;63.45;99109.27;124505;1112;23239;-80
2021/03/20 08:32:30;;;;;;;6.37;3.53;;;;;;;-2.60;62.08;99115.88;124628;1111;27374;-80
2021/03/20 08:35:03;;;;;;;9.65;4.00;;;;;;;-2.53;63.16;99116.98;124631;1112;26546;-80
2021/03/20 08:37:47;;;;;;;5.80;3.10;;;;;;;-2.44;62.54;99111.73;124679;1112;26431;-80
2021/03/20 08:40:33;;;;;;;8.33;3.97;;;;;;;-2.38;62.43;99119.17;124778;1111;24627;-80
2021/03/20 08:43:18;;;;;;;13.30;4.83;;;;;;;-2.29;62.85;99116.45;124485;1112;27690;-80
2021/03/20 08:46:27;;;;;;;9.07;3.10;;;;;;;-2.17;61.41;99117.12;124726;1111;23043;-80
2021/03/20 08:49:13;;;;;;;7.15;3.95;;;;;;;-2.04;62.44;99118.61;124519;1113;27529;-80
2021/03/20 08:51:43;;;;;;;10.60;4.43;;;;;;;-1.92;61.33;99122.76;125214;1112;22891;-80
2021/03/20 08:54:34;;;;;;;9.77;3.77;;;;;;;-1.77;62.10;99118.61;124918;1112;23384;-80
2021/03/20 08:57:16;;;;;;;10.00;4.13;;;;;;;-1.63;60.53;99111.92;125096;1111;28618;-80
2021/03/20 08:59:52;;;;;;;8.20;3.80;;;;;;;-1.45;61.57;99121.75;124559;1112;23024;-80
2021/03/20 09:02:25;;;;;;;12.20;5.13;;;;;;;-1.28;63.13;99122.77;124643;1111;23033;-80
2021/03/20 09:05:02;;;;;;;12.00;3.17;;;;;;;-1.16;58.24;99113.53;124493;1112;23083;-80
2021/03/20 09:07:39;;;;;;;5.60;2.80;;;;;;;-1.19;57.47;99129.86;124646;1112;26213;-80
2021/03/20 09:10:13;;;;;;;7.33;3.23;;;;;;;-1.38;57.81;99121.02;124535;1112;23154;-80
2021/03/20 09:12:46;;;;;;;6.83;2.87;;;;;;;-1.42;58.65;99121.46;124636;1111;27358;-80
2021/03/20 09:15:24;;;;;;;5.33;2.57;;;;;;;-1.32;58.91;99126.75;124692;1112;23022;-80
2021/03/20 09:17:53;;;;;;;5.70;2.13;;;;;;;-1.36;55.48;99124.37;124465;1112;23018;-80
2021/03/20 09:20:43;;;;;;;5.03;2.27;;;;;;;-1.39;55.32;99131.85;124543;1112;26460;-80
2021/03/20 09:23:29;;;;;;;8.37;3.10;;;;;;;-1.37;55.31;99132.53;125251;1111;23117;-80
2021/03/20 09:26:01;;;;;;;4.67;1.60;;;;;;;-1.27;52.92;99135.15;125412;1112;23027;-80
2021/03/20 09:28:51;;;;;;;5.20;2.20;;;;;;;-1.14;57.29;99127.57;124946;1112;23029;-80
2021/03/20 09:31:33;;;;;;;5.28;2.35;;;;;;;-1.04;54.83;99125.66;125089;1110;23077;-80
2021/03/20 09:34:35;;;;;;;10.65;3.05;;;;;;;-0.95;54.88;99134.59;125153;1111;23021;-80
2021/03/20 09:37:25;;;;;;;4.77;2.70;;;;;;;-0.82;54.70;99135.02;125036;1111;27006;-80
2021/03/20 09:39:57;;;;;;;5.80;2.80;;;;;;;-0.79;52.56;99126.69;125076;1112;23033;-80
2021/03/20 09:42:27;;;;;;;5.13;1.80;;;;;;;-0.68;54.15;99133.63;125248;1112;23088;-80
2021/03/20 09:45:04;;;;;;;5.87;2.17;;;;;;;-0.56;52.95;99128.03;125129;1112;23357;-80
2021/03/20 09:47:31;;;;;;;9.30;3.50;;;;;;;-0.45;54.72;99125.91;125186;1112;23060;-80
2021/03/20 09:50:08;;;;;;;7.13;3.67;;;;;;;-0.29;54.82;99137.72;125057;1112;23028;-80
2021/03/20 09:52:43;;;;;;;7.27;2.63;;;;;;;-0.18;53.71;99133.94;124980;1113;23080;-80
2021/03/20 09:55:28;;;;;;;10.57;2.90;;;;;;;-0.10;53.10;99136.66;125310;1112;23684;-80
2021/03/20 09:58:01;;;;;;;5.37;1.70;;;;;;;-0.19;48.42;99138.45;125234;1112;23026;-80
2021/03/20 10:00:48;;;;;;;6.97;2.63;;;;;;;-0.16;50.07;99135.47;125174;1112;23083;-80
2021/03/20 10:03:44;;;;;;;3.77;2.53;;;;;;;-0.29;50.42;99141.23;125065;1111;27663;-80
2021/03/20 10:06:29;;;;;;;5.30;2.60;;;;;;;-0.44;49.71;99151.69;125095;1112;23100;-80
2021/03/20 10:09:07;;;;;;;6.03;3.23;;;;;;;-0.55;50.73;99143.07;125112;1113;23088;-80
2021/03/20 10:12:00;;;;;;;6.13;2.90;;;;;;;-0.45;50.41;99136.62;125102;1112;23076;-80
2021/03/20 10:14:38;;;;;;;6.70;3.03;;;;;;;-0.27;52.23;99141.08;124940;1112;23089;-80
2021/03/20 10:17:07;;;;;;;6.10;3.13;;;;;;;-0.14;51.33;99145.98;125066;1112;23230;-80
2021/03/20 10:19:41;;;;;;;7.40;2.50;;;;;;;0.07;52.43;99145.59;125140;1112;23464;-80
2021/03/20 10:22:23;;;;;;;6.70;2.77;;;;;;;0.32;50.96;99149.20;124950;1112;25550;-80
2021/03/20 10:24:52;;;;;;;5.17;2.80;;;;;;;0.58;51.39;99140.25;125011;1112;27704;-80
2021/03/20 10:27:41;;;;;;;4.13;2.03;;;;;;;0.52;45.95;99150.62;124989;1112;23010;-80
2021/03/20 10:30:16;;;;;;;7.05;3.85;;;;;;;0.46;48.18;99143.25;125072;1111;23037;-80
2021/03/20 10:33:08;;;;;;;9.30;3.20;;;;;;;0.69;52.14;99147.97;125398;1112;26045;-80
2021/03/20 10:35:39;;;;;;;3.63;2.30;;;;;;;1.01;49.89;99149.02;125111;1112;26252;-80
2021/03/20 10:38:16;;;;;;;6.70;3.27;;;;;;;1.38;50.18;99142.32;124974;1111;23089;-80
2021/03/20 10:40:44;;;;;;;5.53;2.87;;;;;;;1.59;47.16;99147.16;124695;1113;23079;-80
2021/03/20 10:43:14;;;;;;;7.87;3.00;;;;;;;1.58;45.47;99140.13;124782;1113;26472;-80
2021/03/20 10:45:44;;;;;;;6.07;3.57;;;;;;;1.55;46.33;99152.03;124727;1112;23024;-80
2021/03/20 10:48:29;;;;;;;6.47;3.30;;;;;;;1.25;45.29;99148.20;124684;1112;26566;-80
2021/03/20 10:51:06;;;;;;;7.90;3.73;;;;;;;0.86;46.91;99155.04;124599;1112;23231;-80
2021/03/20 10:53:41;;;;;;;7.27;2.50;;;;;;;0.68;47.37;99157.03;124671;1112;23239;-80
2021/03/20 10:56:26;;;;;;;5.95;3.20;;;;;;;0.60;48.63;99149.79;124700;1111;23235;-80
2021/03/20 10:58:52;;;;;;;6.17;2.60;;;;;;;0.55;47.99;99155.66;124683;1111;27708;-80
2021/03/20 11:01:35;;;;;;;8.03;2.57;;;;;;;0.48;47.06;99156.45;124477;1111;27742;-79
2021/03/20 11:04:03;;;;;;;6.60;2.45;;;;;;;0.21;45.89;99150.34;124520;1111;23030;-80
2021/03/20 11:06:30;;;;;;;5.67;2.57;;;;;;;0.07;48.37;99158.98;124667;1112;27514;-80
2021/03/20 11:09:19;;;;;;;9.27;2.87;;;;;;;0.01;46.83;99152.44;124583;1112;23229;-80
2021/03/20 11:11:46;;;;;;;8.97;3.27;;;;;;;0.03;47.29;99149.60;124754;1112;23080;-80
2021/03/20 11:14:15;;;;;;;5.77;2.70;;;;;;;0.09;46.85;99149.80;124749;1111;27354;-79
2021/03/20 11:16:43;;;;;;;;;;;;;;;0.06;45.54;99150.12;124840;1111;27685;-79
2021/03/20 11:19:29;;;;;;;12.87;3.33;;;;;;;0.06;47.55;99144.77;124643;1112;25725;-79
2021/03/20 11:22:00;;;;;;;2.23;1.53;;;;;;;0.08;46.57;99142.76;124493;1112;23033;-80
2021/03/20 11:24:36;;;;;;;8.07;2.90;;;;;;;0.10;47.55;99146.11;124780;1111;23080;-80
2021/03/20 11:27:19;;;;;;;9.60;3.70;;;;;;;0.15;48.74;99134.92;124672;1111;23080;-79
2021/03/20 11:29:49;;;;;;;6.67;3.43;;;;;;;0.61;47.56;99138.08;124757;1111;23089;-79
2021/03/20 11:32:25;;;;;;;7.43;3.77;;;;;;;1.10;46.88;99131.95;124863;1112;23231;-80
2021/03/20 11:35:15;;;;;;;8.60;3.90;;;;;;;1.60;46.68;99136.27;124536;1111;24661;-80
2021/03/20 11:37:44;;;;;;;7.47;3.30;;;;;;;1.94;44.77;99127.11;124721;1111;24688;-80
2021/03/20 11:40:23;;;;;;;;;;;;;;;1.87;46.33;99131.50;124666;1112;23154;-80
2021/03/20 11:42:55;;;;;;;7.80;2.55;;;;;;;1.65;46.15;99130.39;124755;1112;21536;-80
2021/03/20 11:45:31;;;;;;;5.43;3.40;;;;;;;1.27;45.60;99122.03;124757;1112;23088;-80
2021/03/20 11:48:15;;;;;;;8.30;3.67;;;;;;;0.89;47.91;99130.59;124694;1111;24652;-80
2021/03/20 11:50:51;;;;;;;10.47;3.90;;;;;;;0.61;47.41;99127.36;124884;1112;24331;-80
2021/03/20 11:53:25;;;;;;;10.20;4.30;;;;;;;0.60;47.63;99119.48;124705;1112;23033;-80
2021/03/20 11:55:55;;;;;;;6.57;3.67;;;;;;;0.69;47.50;99121.16;124594;1112;23076;-80
2021/03/20 11:58:37;;;;;;;7.10;3.35;;;;;;;0.69;45.75;99116.66;124785;1112;23021;-80
2021/03/20 12:01:44;;;;;;;8.87;3.63;;;;;;;0.61;46.84;99121.17;125188;1112;23226;-80
2021/03/20 12:04:11;;;;;;;8.43;4.10;;;;;;;0.50;46.94;99122.33;124841;1111;23080;-80
2021/03/20 12:06:38;;;;;;;9.60;3.90;;;;;;;0.40;46.67;99117.09;124797;1112;23171;-80
2021/03/20 12:09:24;;;;;;;9.30;3.77;;;;;;;0.34;48.89;99121.27;124865;1111;23093;-80
2021/03/20 12:11:54;;;;;;;7.60;3.63;;;;;;;0.16;50.06;99110.67;124692;1111;24491;-80
2021/03/20 12:14:28;;;;;;;20.43;4.70;;;;;;;0.03;49.09;99122.83;124834;1112;24412;-80
2021/03/20 12:17:08;;;;;;;11.90;3.95;;;;;;;-0.04;49.48;99111.91;124723;1112;23117;-80